BUF weather

Buffalo Niagara International Airport
Buffalo, New York, United States

Public forecast

Using degrees Fahrenheit for public forecast. Weather courtesy of forecast.io.

Current aviation weather report (METAR) for Buffalo Niagara International Airport

Retrieved 2019/11/12 19:54 UTC (56 minutes ago):

KBUF 121954Z 33008KT 10SM FEW033 FEW110 BKN270 M05/M13 A3017 RMK AO2 SNB1855E27 SLP228 SHSN DSNT ALQDS P0000 T10501133

Aviation forecast (TAF) for Buffalo Niagara International Airport

Retrieved 2019/11/12 18:22 UTC (2 hours ago):

TAF KBUF 121720Z 1218/1318 33014KT P6SM VCSH BKN090 FM122000 32010KT P6SM SCT100 FM130600 26009KT P6SM BKN060 FM131300 VRB03KT P6SM BKN040